createdAt,value
2022-10-18T00:12:52.411Z,100
2022-10-18T00:27:26.004Z,100
2022-10-18T00:41:59.628Z,100
2022-10-18T00:56:33.221Z,100
2022-10-18T01:11:06.889Z,100
2022-10-18T01:25:39.451Z,100
2022-10-18T01:40:13.369Z,100
2022-10-18T01:54:47.540Z,100
2022-10-18T02:09:37.681Z,100
2022-10-18T02:24:02.396Z,100
2022-10-18T02:38:40.829Z,100
2022-10-18T02:53:10.338Z,100
2022-10-18T03:07:43.814Z,100
2022-10-18T03:22:22.575Z,100
2022-10-18T03:36:52.339Z,100
2022-10-18T03:51:25.463Z,100
2022-10-18T04:05:59.429Z,100
2022-10-18T04:20:32.612Z,100
2022-10-18T04:35:05.829Z,100
2022-10-18T04:49:39.357Z,100
2022-10-18T05:04:12.535Z,100
2022-10-18T05:18:46.747Z,100
2022-10-18T05:33:19.910Z,100
2022-10-18T05:47:52.971Z,100
2022-10-18T06:02:32.602Z,100
2022-10-18T06:17:08.376Z,100
2022-10-18T06:31:37.590Z,100
2022-10-18T06:46:11.431Z,100
2022-10-18T07:00:44.324Z,100
2022-10-18T07:15:21.881Z,100
2022-10-18T07:29:49.635Z,100
2022-10-18T07:44:20.653Z,100
2022-10-18T07:59:02.010Z,100
2022-10-18T08:13:38.377Z,100
2022-10-18T08:28:08.517Z,100
2022-10-18T08:42:42.859Z,100
2022-10-18T08:57:15.647Z,100
2022-10-18T09:11:49.342Z,100
2022-10-18T09:26:23.467Z,100
2022-10-18T09:40:56.942Z,100
2022-10-18T09:55:30.679Z,100
2022-10-18T10:10:04.573Z,100
2022-10-18T10:24:37.145Z,100
2022-10-18T10:39:18.564Z,100
2022-10-18T10:53:54.762Z,100
2022-10-18T11:08:31.714Z,100
2022-10-18T11:23:10.117Z,100
2022-10-18T11:37:38.888Z,100
2022-10-18T11:52:10.538Z,100
2022-10-18T12:06:45.444Z,100
2022-10-18T12:21:25.862Z,99.7
2022-10-18T12:35:55.233Z,96.5
2022-10-18T12:50:27.375Z,98.8
2022-10-18T13:05:35.014Z,99.9
2022-10-18T13:20:26.983Z,97.4
2022-10-18T13:34:51.995Z,97.8
2022-10-18T13:49:24.141Z,94.5
2022-10-18T14:04:01.964Z,93.1
2022-10-18T14:18:32.217Z,93
2022-10-18T14:33:12.212Z,89.3
2022-10-18T14:47:40.417Z,92.4
2022-10-18T15:02:13.053Z,90.8
2022-10-18T15:16:45.303Z,91.1
2022-10-18T15:31:19.809Z,85.1
2022-10-18T15:45:51.982Z,88.1
2022-10-18T16:00:25.040Z,93.4
2022-10-18T16:14:54.943Z,92.9
2022-10-18T16:29:32.887Z,93.9
2022-10-18T16:44:06.416Z,93
2022-10-18T16:58:34.210Z,93.6
2022-10-18T17:13:06.029Z,93.5
2022-10-18T17:27:38.765Z,92.5
2022-10-18T17:42:11.233Z,96.4
2022-10-18T17:56:43.387Z,97.3
2022-10-18T18:11:21.873Z,100
2022-10-18T18:25:57.011Z,97.8
2022-10-18T18:40:26.267Z,100
2022-10-18T18:54:57.812Z,97.3
2022-10-18T19:09:31.210Z,98.9
2022-10-18T19:24:04.457Z,100
2022-10-18T19:38:36.809Z,100
2022-10-18T19:53:09.246Z,100
2022-10-18T20:07:41.092Z,100
2022-10-18T20:22:15.416Z,100
2022-10-18T20:36:48.973Z,100
2022-10-18T20:51:21.507Z,100
2022-10-18T21:05:55.250Z,100
2022-10-18T21:20:28.295Z,100
2022-10-18T21:35:06.307Z,100
2022-10-18T21:49:42.264Z,100
2022-10-18T22:04:09.653Z,100
2022-10-18T22:18:42.799Z,100
2022-10-18T22:33:21.549Z,100
2022-10-18T22:47:56.477Z,100
2022-10-18T23:02:24.641Z,100
2022-10-18T23:16:59.359Z,100
2022-10-18T23:31:32.012Z,100
2022-10-18T23:46:03.073Z,100
